Latest Coastal Weather Observations for Cape Grim

IDT60701

Issued at 2:22 am EST Friday 29 July 2016 (issued every 10 minutes, with the page automatically refreshed every 10 minutes)

About coastal observations | Map of coastal stations | Coastal observations for TAS | Marine services | Other Formats
Station Details ID: 091331 Name: CAPE GRIM Lat: -40.68 Lon: 144.69 Height: 86.0 m
Data from the previous 72 hours. | See also: Recent months at Cape Grim
Date/Time
EST
Temp
°C
Wind Pressure Rain since
9am
mm
Weather Cloud Vis
km
Sea
Height
m
Swell
Dir  Spd
kts
Gust
kts
hPa Trend Height
m
Period
s
Dir
29/02:00am 10.8 W 20 28 1014.6 - 2.4 - Partly cloudy - - - - -
29/01:36am 11.2 W 22 32 1014.8 - 2.2 - Partly cloudy - - - - -
29/01:30am 11.1 W 25 32 1014.8 - 2.2 - Partly cloudy - - - - -
29/01:00am 11.4 W 19 27 1015.0 - 2.2 - Partly cloudy - - - - -
29/12:30am 11.3 W 19 30 1015.2 - 2.2 - Partly cloudy - - - - -
29/12:09am 11.1 W 22 33 1015.3 - 2.2 - Partly cloudy - - - - -
29/12:00am 11.0 W 20 28 1015.4 - 2.2 Recent precip. Mostly cloudy - - - - -
 
Date/Time
EST
Temp
°C
Wind Pressure Rain since
9am
mm
Weather Cloud Vis
km
Sea
Height
m
Swell
Dir  Spd
kts
Gust
kts
hPa Trend Height
m
Period
s
Dir
28/11:30pm 11.0 W 21 32 1015.6 - 2.2 - Partly cloudy - - - - -
28/11:00pm 10.6 W 21 31 1015.7 - 2.0 - Partly cloudy - - - - -
28/10:38pm 10.5 W 24 34 1016.0 - 1.6 - Partly cloudy - - - - -
28/10:30pm 10.9 W 25 32 1016.0 - 1.4 - Partly cloudy - - - - -
28/10:00pm 11.2 W 18 28 1016.3 - 1.4 - Partly cloudy - - - - -
28/09:30pm 11.0 W 17 27 1016.6 - 1.4 - Partly cloudy - - - - -
28/09:04pm 11.0 W 21 31 1016.7 - 1.4 - Partly cloudy - - - - -
28/09:00pm 10.9 W 20 27 1016.9 - 1.4 - Cloudy - - - - -
28/08:37pm 11.4 W 19 29 1017.0 - 1.4 - Partly cloudy - - - - -
28/08:30pm 11.3 W 21 29 1016.9 - 1.4 - Cloudy - - - - -
28/08:00pm 10.8 W 22 31 1017.1 - 1.4 - Partly cloudy - - - - -
28/07:31pm 10.7 W 20 30 1016.9 - 1.4 - Partly cloudy - - - - -
28/07:30pm 10.9 W 20 26 1016.9 - 1.4 - Partly cloudy - - - - -
28/07:29pm 10.9 W 20 26 1016.9 - 1.4 - Partly cloudy - - - - -
28/07:00pm 10.7 W 19 29 1016.8 - 1.2 - Partly cloudy - - - - -
28/06:56pm 10.7 W 19 29 1016.8 - 1.2 - Partly cloudy - - - - -
28/06:40pm 10.9 W 20 29 1016.6 - 1.2 - Partly cloudy - - - - -
28/06:33pm 11.0 W 17 29 1016.6 - 1.0 - Partly cloudy - - - - -
28/06:30pm 10.9 W 18 24 1016.6 - 1.0 - Partly cloudy - - - - -
28/06:00pm 11.1 W 18 27 1016.5 - 1.0 - Cloudy - - - - -
28/05:30pm 11.2 W 18 27 1016.3 - 1.0 - Partly cloudy - - - - -
28/05:00pm 11.6 W 23 35 1016.2 - 1.0 - Partly cloudy - - - - -
28/04:30pm 11.5 W 24 37 1016.3 - 1.0 - Partly cloudy - - - - -
28/04:17pm 11.4 W 24 34 1016.2 - 0.8 - Partly cloudy - - - - -
28/04:00pm 11.4 W 23 30 1016.1 - 0.8 - Partly cloudy - - - - -
28/03:37pm 10.5 W 25 36 1016.0 - 0.8 - Partly cloudy - - - - -
28/03:30pm 11.4 W 23 32 1015.9 - 0.8 - Partly cloudy - - - - -
28/03:00pm 11.3 W 23 33 1015.5 - 0.8 - Partly cloudy - - - - -
28/02:30pm 11.0 W 21 36 1015.6 - 0.8 - Partly cloudy - - - - -
28/02:00pm 11.1 W 20 31 1015.6 - 0.8 - Partly cloudy - - - - -
28/01:43pm 10.8 W 22 32 1015.9 - 0.8 - Partly cloudy - - - - -
28/01:42pm 10.8 W 23 32 1015.9 - 0.8 - Partly cloudy - - - - -
28/01:30pm 10.1 W 24 35 1016.0 - 0.8 - Partly cloudy - - - - -
28/01:00pm 10.7 W 22 36 1016.1 - 0.2 - Partly cloudy - - - - -
28/12:30pm 11.5 W 23 35 1016.3 - 0.0 - Partly cloudy - - - - -
28/12:00pm 10.9 W 25 36 1016.5 - 0.0 - Mostly cloudy - - - - -
28/11:30am 10.9 W 24 34 1016.7 - 0.0 - Partly cloudy - - - - -
28/11:01am 10.9 W 23 33 1016.7 - 0.0 - Partly cloudy - - - - -
28/11:00am 11.0 W 24 33 1016.7 - 0.0 - Partly cloudy - - - - -
28/10:30am 11.1 W 22 33 1016.4 - 0.0 - Partly cloudy - - - - -
28/10:03am 11.1 W 22 32 1016.4 - 0.0 - Partly cloudy - - - - -
28/10:00am 11.5 W 22 29 1016.3 - 0.0 - Partly cloudy - - - - -
28/09:30am 10.7 W 23 34 1016.4 - 0.0 - Partly cloudy - - - - -
28/09:00am 11.2 W 23 33 1016.3 - 3.0 Recent precip. Cloudy - - - - -
28/08:41am 10.9 W 23 33 1016.1 - 3.0 - Partly cloudy - - - - -
28/08:30am 10.8 W 23 32 1015.9 - 3.0 - Partly cloudy - - - - -
28/08:00am 11.1 W 25 37 1015.7 - 2.8 - Partly cloudy - - - - -
28/07:30am 10.7 W 23 33 1015.4 - 2.8 - Partly cloudy - - - - -
28/07:00am 11.2 W 22 33 1015.3 - 2.8 - Partly cloudy - - - - -
28/06:30am 11.0 W 22 33 1014.9 - 2.6 - Partly cloudy - - - - -
28/06:00am 10.9 W 24 34 1014.8 - 2.6 - Mostly cloudy - - - - -
28/05:30am 11.2 W 24 35 1014.7 - 2.6 - Partly cloudy - - - - -
28/05:05am 10.9 W 24 37 1014.4 - 2.6 - Partly cloudy - - - - -
28/05:00am 11.3 W 24 32 1014.5 - 2.6 - Partly cloudy - - - - -
28/04:33am 11.1 W 23 33 1014.5 - 2.6 - Partly cloudy - - - - -
28/04:30am 11.1 W 22 30 1014.5 - 2.6 - Partly cloudy - - - - -
28/04:00am 11.3 W 25 40 1014.5 - 2.6 - Partly cloudy - - - - -
28/03:30am 11.2 W 23 33 1014.5 - 2.6 - Partly cloudy - - - - -
28/03:00am 11.1 W 22 33 1014.7 - 2.6 - Mostly cloudy - - - - -
28/02:39am 11.2 W 22 32 1014.8 - 2.6 - Partly cloudy - - - - -
28/02:30am 11.2 W 24 33 1014.8 - 2.6 - Partly cloudy - - - - -
28/02:00am 10.9 W 22 35 1014.8 - 2.6 - Partly cloudy - - - - -
28/01:30am 11.4 W 20 30 1014.6 - 2.4 - Partly cloudy - - - - -
28/01:00am 11.2 W 20 32 1014.5 - 2.4 - Partly cloudy - - - - -
28/12:30am 11.3 W 18 29 1014.4 - 2.4 - Partly cloudy - - - - -
28/12:00am 11.2 W 18 29 1014.7 - 2.2 Recent precip. Partly cloudy - - - - -
 
Date/Time
EST
Temp
°C
Wind Pressure Rain since
9am
mm
Weather Cloud Vis
km
Sea
Height
m
Swell
Dir  Spd
kts
Gust
kts
hPa Trend Height
m
Period
s
Dir
27/11:30pm 10.8 W 17 27 1014.7 - 2.2 - Partly cloudy - - - - -
27/11:03pm 11.3 W 21 31 1014.4 - 2.0 - Partly cloudy - - - - -
27/11:00pm 11.2 W 21 30 1014.4 - 2.0 - Partly cloudy - - - - -
27/10:30pm 11.1 W 22 37 1014.1 - 2.0 - Partly cloudy - - - - -
27/10:00pm 11.6 WSW 20 34 1014.1 - 1.4 - Partly cloudy - - - - -
27/09:30pm 11.3 WSW 20 32 1013.9 - 1.4 - Partly cloudy - - - - -
27/09:11pm 11.1 WSW 21 38 1013.7 - 1.2 - Partly cloudy - - - - -
27/09:00pm 11.7 W 21 33 1013.7 - 1.2 Recent precip. Cloudy - - - - -
27/08:35pm 11.2 W 25 35 1013.2 - 0.8 - Partly cloudy - - - - -
27/08:30pm 11.3 W 25 34 1013.2 - 0.8 - Partly cloudy - - - - -
27/08:00pm 11.3 W 27 41 1012.8 - 0.6 - Partly cloudy - - - - -
27/07:30pm 11.4 W 25 39 1012.8 - 0.6 - Partly cloudy - - - - -
27/07:00pm 10.8 W 25 35 1012.7 - 0.4 - Partly cloudy - - - - -
27/06:30pm 10.8 W 25 36 1012.2 - 0.4 - Partly cloudy - - - - -
27/06:00pm 10.8 W 27 39 1011.9 - 0.2 - Cloudy - - - - -
27/05:30pm 10.1 W 29 40 1011.7 - 0.2 - Partly cloudy - - - - -
27/05:00pm 10.0 W 26 37 1011.4 - 0.2 - Partly cloudy - - - - -
27/04:30pm 9.7 W 26 37 1011.3 - 0.2 - Partly cloudy - - - - -
27/04:00pm 10.1 W 25 35 1011.2 - 0.2 - Partly cloudy - - - - -
27/03:31pm 9.3 W 24 34 1011.1 - 0.2 - Partly cloudy - - - - -
27/03:30pm 9.5 W 24 33 1011.1 - 0.2 - Partly cloudy - - - - -
27/03:00pm 9.4 W 26 42 1010.7 - 0.2 Recent precip. Mostly cloudy - - - - -
27/02:30pm 9.6 W 22 35 1011.0 - 0.2 - Partly cloudy - - - - -
27/02:00pm 9.6 W 23 37 1011.0 - 0.0 - Partly cloudy - - - - -
27/01:30pm 9.8 W 23 33 1010.6 - 0.0 - Partly cloudy - - - - -
27/01:00pm 9.6 W 22 33 1010.7 - 0.0 - Partly cloudy - - - - -
27/12:30pm 9.2 W 21 34 1010.7 - 0.0 - Partly cloudy - - - - -
27/12:00pm 8.9 W 22 32 1010.7 - 0.0 - Mostly cloudy - - - - -
27/11:30am 9.5 WSW 17 29 1010.6 - 0.0 - Partly cloudy - - - - -
27/11:11am 9.4 WSW 18 27 1010.5 - 0.0 - Partly cloudy - - - - -
27/11:10am 9.4 WSW 19 29 1010.4 - 0.0 - Partly cloudy - - - - -
27/11:03am 8.5 SW 23 33 1010.6 - 0.0 - Partly cloudy - - - - -
27/11:00am 8.3 SW 24 33 1010.7 - 0.0 - Partly cloudy - - - - -
27/10:30am 9.6 SW 20 31 1010.2 - 0.0 - Partly cloudy - - - - -
27/10:00am 8.7 WSW 17 30 1009.9 - 0.0 - Partly cloudy - - - - -
27/09:35am 9.2 SW 25 35 1009.2 - 0.0 - - - - - - -
27/09:30am 9.2 SW 26 35 1009.2 - 0.0 - - - - - - -
27/09:00am 8.9 SW 27 34 1008.6 - 27.4 - Mostly clear - - - - -
27/08:30am 8.7 SW 30 37 1008.0 - 27.4 - Partly cloudy - - - - -
27/08:18am 8.6 SW 28 38 1007.6 - 27.4 - Partly cloudy - - - - -
27/08:00am 8.5 SW 29 36 1007.2 - 27.4 - - - - - - -
27/07:38am 8.5 SW 29 39 1006.7 - 27.4 - Partly cloudy - - - - -
27/07:30am 8.6 SW 30 38 1006.4 - 27.4 - Partly cloudy - - - - -
27/07:00am 8.5 SW 27 35 1005.6 - 27.4 - Partly cloudy - - - - -
27/06:30am 7.9 SW 25 37 1005.3 - 27.4 - - - - - - -
27/06:27am 7.8 SW 23 33 1005.2 - 27.4 - - - - - - -
27/06:19am 7.6 SSW 24 35 1005.1 - 27.4 - Partly cloudy - - - - -
27/06:00am 8.0 SW 31 41 1004.4 - 27.4 - Partly cloudy - - - - -
27/05:31am 8.2 SW 25 35 1003.9 - 27.4 - Partly cloudy - - - - -
27/05:30am 8.1 SW 25 34 1003.8 - 27.4 - Partly cloudy - - - - -
27/05:00am 8.4 SW 29 40 1003.0 - 27.4 - Partly cloudy - - - - -
27/04:31am 8.5 SW 25 37 1002.3 - 27.4 - Partly cloudy - - - - -
27/04:30am 8.8 SSW 24 33 1002.3 - 27.4 - Partly cloudy - - - - -
27/04:01am 8.7 SW 25 35 1001.7 - 27.4 - Partly cloudy - - - - -
27/04:00am 8.6 SW 26 35 1001.7 - 27.4 - Partly cloudy - - - - -
27/03:37am 9.1 SW 31 41 1001.1 - 27.4 - Partly cloudy - - - - -
27/03:30am 8.8 SW 34 42 1001.0 - 27.4 - Partly cloudy - - - - -
27/03:10am 9.1 SW 32 43 1000.5 - 27.4 - Partly cloudy - - - - -
27/03:00am 9.2 SW 36 45 1000.3 - 27.4 Recent precip. Cloudy - - - - -
27/02:52am 10.2 SW 29 45 1000.0 - 27.4 - Partly cloudy - - - - -
27/02:30am 10.1 SW 24 35 999.7 - 27.4 - Partly cloudy - - - - -
27/02:00am 10.1 W 20 30 999.2 - 27.0 - Partly cloudy - - - - -
27/01:30am 10.3 W 25 35 998.9 - 26.6 - Partly cloudy - - - - -
27/01:05am 9.9 W 30 40 998.9 - 26.2 - Partly cloudy - - - - -
27/01:00am 10.5 WNW 31 39 998.7 - 26.0 - Partly cloudy - - - - -
27/12:30am 10.7 WNW 37 49 998.2 - 26.0 - Partly cloudy - - - - -
27/12:20am 10.4 NW 36 50 997.8 - 26.0 - Partly cloudy - - - - -
27/12:12am 10.3 NW 37 48 997.8 - 26.0 - Partly cloudy - - - - -
27/12:10am 10.5 NW 37 46 998.0 - 26.0 - Partly cloudy - - - - -
27/12:00am 10.3 NW 35 46 997.9 - 26.0 Rain Cloudy - - - - -
 
Date/Time
EST
Temp
°C
Wind Pressure Rain since
9am
mm
Weather Cloud Vis
km
Sea
Height
m
Swell
Dir  Spd
kts
Gust
kts
hPa Trend Height
m
Period
s
Dir
26/11:56pm 10.2 NW 33 43 997.9 - 26.0 - Partly cloudy - - - - -
26/11:31pm 9.7 WNW 27 37 998.9 - 25.0 - Partly cloudy - - - - -
26/11:30pm 9.6 WNW 28 37 998.9 - 24.8 - Partly cloudy - - - - -
26/11:21pm 9.3 WNW 31 43 998.8 - 24.4 - Partly cloudy - - - - -
26/11:09pm 9.5 WNW 33 45 999.3 - 23.2 - Partly cloudy - - - - -
26/11:05pm 9.6 WNW 33 45 999.1 - 22.0 - Partly cloudy - - - - -
26/11:00pm 9.9 NW 32 41 999.0 - 21.4 - Partly cloudy - - - - -
26/10:30pm 9.6 NW 34 46 999.1 - 19.0 - Partly cloudy - - - - -
26/10:00pm 9.5 NW 34 49 999.2 - 18.0 - Partly cloudy - - - - -
26/09:40pm 9.6 NW 32 44 999.1 - 17.2 - Partly cloudy - - - - -
26/09:37pm 9.5 NW 29 44 999.1 - 17.2 - Partly cloudy - - - - -
26/09:36pm 9.5 NW 26 44 999.2 - 17.2 - Partly cloudy - - - - -
26/09:30pm 9.1 WNW 14 37 999.2 - 16.4 - Partly cloudy - - - - -
26/09:29pm 8.8 WNW 12 36 999.4 - 16.4 - Partly cloudy - - - - -
26/09:00pm 7.9 NW 15 21 1000.3 - 12.4 Rain Cloudy - - - - -
26/08:30pm 8.2 NW 19 25 1000.9 - 10.0 - Partly cloudy - - - - -
26/08:00pm 7.8 WNW 27 40 1001.3 - 8.2 - Partly cloudy - - - - -
26/07:48pm 8.7 WNW 25 35 1000.9 - 7.6 - Partly cloudy - - - - -
26/07:36pm 8.2 NW 27 37 1001.1 - 7.4 - Partly cloudy - - - - -
26/07:30pm 8.5 NW 26 37 1001.2 - 7.0 - Partly cloudy - - - - -
26/07:00pm 8.7 NW 25 39 1001.1 - 6.0 - Partly cloudy - - - - -
26/06:30pm 8.6 NW 21 31 1001.5 - 5.0 - Partly cloudy - - - - -
26/06:15pm 8.3 NW 15 25 1001.6 - 4.8 - Partly cloudy - - - - -
26/06:00pm 7.4 NW 14 19 1001.9 - 4.8 Rain Cloudy - - - - -
26/05:30pm 7.7 NW 21 29 1002.2 - 3.8 - Partly cloudy - - - - -
26/05:01pm 7.1 WNW 19 29 1002.5 - 3.4 - Partly cloudy - - - - -
26/05:00pm 7.0 WNW 20 29 1002.5 - 3.4 - Partly cloudy - - - - -
26/04:48pm 6.9 WNW 21 33 1002.5 - 3.0 - Partly cloudy - - - - -
26/04:41pm 7.5 NW 24 33 1002.4 - 2.0 - Partly cloudy - - - - -
26/04:30pm 8.3 NNW 26 34 1002.1 - 1.6 - Partly cloudy - - - - -
26/04:00pm 8.7 NNW 27 32 1002.2 - 1.4 - Partly cloudy - - - - -
26/03:43pm 9.2 NW 23 33 1002.4 - 1.4 - Partly cloudy - - - - -
26/03:30pm 9.4 NW 25 30 1002.6 - 1.4 - Partly cloudy - - - - -
26/03:14pm 9.5 NW 22 32 1002.7 - 1.4 - Partly cloudy - - - - -
26/03:00pm 9.6 WNW 22 29 1002.7 - 1.4 - Mostly cloudy - - - - -
26/02:33pm 9.4 WNW 23 33 1002.9 - 1.4 - Partly cloudy - - - - -
26/02:30pm 9.3 WNW 23 30 1003.0 - 1.4 - Partly cloudy - - - - -
26/02:00pm 9.4 WNW 24 32 1003.4 - 1.4 - Partly cloudy - - - - -
26/01:30pm 8.9 WNW 23 31 1003.8 - 1.4 - Partly cloudy - - - - -
26/01:00pm 6.8 WNW 22 33 1004.2 - 1.4 - Partly cloudy - - - - -
26/12:41pm 8.6 W 22 32 1004.5 - 0.4 - Partly cloudy - - - - -
26/12:30pm 8.3 WNW 25 32 1004.5 - 0.4 - Partly cloudy - - - - -
26/12:12pm 9.8 WNW 25 38 1004.3 - 0.4 - Partly cloudy - - - - -
26/12:00pm 9.9 W 24 32 1004.5 - 0.4 - Mostly clear - - - - -
26/11:30am 9.7 W 21 32 1004.6 - 0.4 - - - - - - -
26/11:05am 9.2 W 25 35 1004.8 - 0.4 - Partly cloudy - - - - -
26/11:00am 9.1 W 26 35 1004.8 - 0.4 - Partly cloudy - - - - -
26/10:54am 9.4 W 25 35 1004.7 - 0.4 - Partly cloudy - - - - -
26/10:30am 9.2 W 26 35 1004.4 - 0.4 - Partly cloudy - - - - -
26/10:00am 9.2 W 22 33 1004.3 - 0.4 - Partly cloudy - - - - -
26/09:30am 8.0 W 23 33 1004.3 - 0.4 - Partly cloudy - - - - -
26/09:18am 7.4 W 29 39 1004.3 - 0.4 - Partly cloudy - - - - -
26/09:13am 7.7 W 21 39 1004.2 - 0.4 - Partly cloudy - - - - -
26/09:08am 8.6 WSW 15 32 1004.3 - 0.0 - Partly cloudy - - - - -
26/09:00am 8.8 WSW 14 28 1004.2 - 14.4 - Mostly cloudy - - - - -
26/08:58am 8.7 WSW 15 28 1004.3 - 14.4 - Partly cloudy - - - - -
26/08:30am 8.9 W 21 34 1004.2 - 14.4 - Partly cloudy - - - - -
26/08:00am 8.9 WSW 18 28 1003.9 - 14.4 - Partly cloudy - - - - -
26/07:30am 8.0 W 22 33 1003.7 - 14.4 - Partly cloudy - - - - -
26/07:00am 6.7 W 28 39 1003.3 - 14.4 - Partly cloudy - - - - -
26/06:30am 8.8 W 24 37 1002.2 - 14.0 - Partly cloudy - - - - -
26/06:00am 8.6 W 28 43 1001.4 - 14.0 Recent precip. Cloudy - - - - -
26/05:30am 8.5 W 26 39 1001.1 - 14.0 - Partly cloudy - - - - -
26/05:29am 8.6 W 27 39 1001.0 - 14.0 - Partly cloudy - - - - -
26/05:03am 6.2 WSW 24 51 1000.6 - 14.0 - Partly cloudy - - - - -
26/05:00am 8.3 WSW 23 40 1000.9 - 13.6 - Partly cloudy - - - - -
26/04:54am 8.0 WSW 28 45 1000.6 - 13.6 - Partly cloudy - - - - -
26/04:53am 7.9 WSW 28 45 1000.7 - 13.6 - Partly cloudy - - - - -
26/04:30am 8.2 W 25 39 1000.1 - 13.4 - Partly cloudy - - - - -
26/04:00am 7.0 W 32 50 1000.0 - 13.4 - Partly cloudy - - - - -
26/03:30am 8.5 W 28 41 999.5 - 13.4 - Partly cloudy - - - - -
26/03:00am 8.4 W 31 45 999.1 - 13.4 - Cloudy - - - - -
26/02:30am 8.3 W 28 41 998.6 - 13.4 - Partly cloudy - - - - -

Other Formats:

Comma delimited format used in spreadsheet applications
http://www.bom.gov.au/fwo/IDT60701/IDT60701.95954.axf

JavaScript Object Notation format (JSON) in row-major order
http://www.bom.gov.au/fwo/IDT60701/IDT60701.95954.json